Terminal Aerodrome Forecast
Issued by NWS Grand Forks, ND

Home | Current Version | Previous Version | Text Only | Print | Product List | Glossary On
Versions: 1 2 3 4 5 6 7 8 9 10 11 12 13 14 15 16 17 18
000
FTUS43 KFGF 242352 AAA
TAFFAR
TAF AMD
KFAR 242352Z 2500/2524 19014G26KT P6SM VCTS FEW080CB SCT200
     FM250500 20009KT P6SM FEW060 SCT250
     FM251100 23007KT P6SM FEW250
     FM251600 26010KT P6SM FEW250=

USA.gov is the U.S. government's official web portal to all federal, state and local government web resources and services.